地図

経路データ

SID SEASON NUMBER BASIN SUBBASIN NAME ISO_TIME NATURE LAT LON WMO_WIND WMO_PRES WMO_AGENCY TRACK_TYPE DIST2LAND LANDFALL IFLAG USA_AGENCY USA_ATCF_ID USA_LAT USA_LON USA_RECORD USA_STATUS USA_WIND USA_PRES USA_SSHS USA_R34_NE USA_R34_SE USA_R34_SW USA_R34_NW USA_R50_NE USA_R50_SE USA_R50_SW USA_R50_NW USA_R64_NE USA_R64_SE USA_R64_SW USA_R64_NW USA_POCI USA_ROCI USA_RMW USA_EYE TOKYO_LAT TOKYO_LON TOKYO_GRADE TOKYO_WIND TOKYO_PRES TOKYO_R50_DIR TOKYO_R50_LONG TOKYO_R50_SHORT TOKYO_R30_DIR TOKYO_R30_LONG TOKYO_R30_SHORT TOKYO_LAND CMA_LAT CMA_LON CMA_CAT CMA_WIND CMA_PRES HKO_LAT HKO_LON HKO_CAT HKO_WIND HKO_PRES NEWDELHI_LAT NEWDELHI_LON NEWDELHI_GRADE NEWDELHI_WIND NEWDELHI_PRES NEWDELHI_CI NEWDELHI_DP NEWDELHI_POCI REUNION_LAT REUNION_LON REUNION_TYPE REUNION_WIND REUNION_PRES REUNION_TNUM REUNION_CI REUNION_RMW REUNION_R34_NE REUNION_R34_SE REUNION_R34_SW REUNION_R34_NW REUNION_R50_NE REUNION_R50_SE REUNION_R50_SW REUNION_R50_NW REUNION_R64_NE REUNION_R64_SE REUNION_R64_SW REUNION_R64_NW BOM_LAT BOM_LON BOM_TYPE BOM_WIND BOM_PRES BOM_TNUM BOM_CI BOM_RMW BOM_R34_NE BOM_R34_SE BOM_R34_SW BOM_R34_NW BOM_R50_NE BOM_R50_SE BOM_R50_SW BOM_R50_NW BOM_R64_NE BOM_R64_SE BOM_R64_SW BOM_R64_NW BOM_ROCI BOM_POCI BOM_EYE BOM_POS_METHOD BOM_PRES_METHOD NADI_LAT NADI_LON NADI_CAT NADI_WIND NADI_PRES WELLINGTON_LAT WELLINGTON_LON WELLINGTON_WIND WELLINGTON_PRES DS824_LAT DS824_LON DS824_STAGE DS824_WIND DS824_PRES TD9636_LAT TD9636_LON TD9636_STAGE TD9636_WIND TD9636_PRES TD9635_LAT TD9635_LON TD9635_WIND TD9635_PRES TD9635_ROCI NEUMANN_LAT NEUMANN_LON NEUMANN_CLASS NEUMANN_WIND NEUMANN_PRES MLC_LAT MLC_LON MLC_CLASS MLC_WIND MLC_PRES USA_GUST BOM_GUST BOM_GUST_PER REUNION_GUST REUNION_GUST_PER USA_SEAHGT USA_SEARAD_NE USA_SEARAD_SE USA_SEARAD_SW USA_SEARAD_NW STORM_SPEED STORM_DIR
2003212N09150 2003 52 WP MM ETAU 2003-07-31 06:00:00 TS 8.60000 150.100 main 1235 1223 O_____________ jtwc_wp WP112003 8.60000 150.100 TD 15 1006 -1 11 270
2003212N09150 2003 52 WP MM ETAU 2003-07-31 09:00:00 TS 8.60017 149.542 main 1221 1212 P_____________ WP112003 8.60017 149.542 TD 15 1006 -1 11 270
2003212N09150 2003 52 WP MM ETAU 2003-07-31 12:00:00 TS 8.60000 149.000 main 1212 1205 O_____________ jtwc_wp WP112003 8.60000 149.000 TD 15 1006 -1 10 270
2003212N09150 2003 52 WP MM ETAU 2003-07-31 15:00:00 TS 8.59993 148.485 main 1205 1200 P_____________ WP112003 8.59993 148.485 TD 15 1006 -1 10 270
2003212N09150 2003 52 WP MM ETAU 2003-07-31 18:00:00 TS 8.60000 148.000 main 1200 1199 O_____________ jtwc_wp WP112003 8.60000 148.000 TD 15 1006 -1 9 270
2003212N09150 2003 52 WP MM ETAU 2003-07-31 21:00:00 TS 8.59995 147.535 main 1199 1199 P_____________ WP112003 8.59995 147.535 TD 15 1006 -1 9 270
2003212N09150 2003 52 WP MM ETAU 2003-08-01 00:00:00 TS 8.60000 147.100 main 1199 1199 O_____________ jtwc_wp WP112003 8.60000 147.100 TD 15 1006 -1 8 269
2003212N09150 2003 52 WP MM ETAU 2003-08-01 03:00:00 TS 8.59238 146.707 main 1199 1199 P_____________ WP112003 8.59238 146.707 TD 15 1006 -1 8 270
2003212N09150 2003 52 WP MM ETAU 2003-08-01 06:00:00 TS 8.60000 146.300 main 1199 1199 O_____________ jtwc_wp WP112003 8.60000 146.300 TD 15 1006 -1 9 272
2003212N09150 2003 52 WP MM ETAU 2003-08-01 09:00:00 TS 8.62002 145.807 main 1202 1202 P_____________ WP112003 8.62002 145.807 TD 17 1005 -1 10 276
2003212N09150 2003 52 WP MM ETAU 2003-08-01 12:00:00 TS 8.70000 145.300 main 1218 1218 O_____________ jtwc_wp WP112003 8.70000 145.300 TD 20 1004 -1 10 284
2003212N09150 2003 52 WP MM ETAU 2003-08-01 15:00:00 TS 8.86242 144.842 main 1248 1248 P_____________ WP112003 8.86242 144.842 TD 20 1004 -1 10 294
2003212N09150 2003 52 WP MM ETAU 2003-08-01 18:00:00 TS 9.10000 144.400 main 1278 1278 O_____________ jtwc_wp WP112003 9.10000 144.400 TD 20 1004 -1 1008 150 50 10 301
2003212N09150 2003 52 WP MM ETAU 2003-08-01 21:00:00 TS 9.39238 143.965 main 1320 1320 P_____________ WP112003 9.39238 143.965 TD 22 1003 -1 1008 150 50 11 304
2003212N09150 2003 52 WP MM ETAU 2003-08-02 00:00:00 TS 9.70000 143.500 main 1366 1366 O_____________ jtwc_wp WP112003 9.70000 143.500 TD 25 1002 -1 1008 150 50 11 299
2003212N09150 2003 52 WP MM ETAU 2003-08-02 03:00:00 TS 9.94255 142.950 main 1389 1389 P_____________ WP112003 9.94255 142.950 TD 25 1002 -1 12 295
2003212N09150 2003 52 WP MM ETAU 2003-08-02 06:00:00 TS 10.2000 142.400 main 1401 1398 O_____________ jtwc_wp WP112003 10.2000 142.400 TD 25 1002 -1 12 300
2003212N09150 2003 52 WP MM ETAU 2003-08-02 09:00:00 TS 10.5349 141.927 main 1416 1416 P_____________ WP112003 10.5349 141.927 TD 25 1002 -1 11 308
2003212N09150 2003 52 WP MM ETAU 2003-08-02 12:00:00 TS 10.9000 141.500 main 1447 1447 O_____________ jtwc_wp WP112003 10.9000 141.500 TD 25 1002 -1 1008 120 60 11 311
2003212N09150 2003 52 WP MM ETAU 2003-08-02 15:00:00 TS 11.2424 141.092 main 1462 1462 P_____________ WP112003 11.2424 141.092 TD 25 1002 -1 13 316
2003212N09150 2003 52 WP MM ETAU 2003-08-02 18:00:00 TS 11.8667 140.550 1004 tokyo main 1514 1511 OOO___________ jtwc_wp WP112003 11.6000 140.700 TD 25 1002 -1 12.4000 140.200 2 1004 0 0 0 12.4000 140.300 1 23 1004 13 319
2003212N09150 2003 52 WP MM ETAU 2003-08-02 21:00:00 TS 12.2487 140.214 main 1532 1532 PPP___________ WP112003 11.9924 140.300 TD 27 1001 -1 12.4325 140.110 2 1004 0 0 12.5776 140.148 1 23 1004 9 321
2003212N09150 2003 52 WP MM ETAU 2003-08-03 00:00:00 TS 12.5800 139.960 1004 tokyo main 1554 1527 OOO___________ jtwc_wp WP112003 12.4000 139.900 TD 30 1000 -1 1007 130 45 12.6000 140.000 2 1004 0 0 0 12.8000 140.000 1 23 1004 9 326
2003212N09150 2003 52 WP MM ETAU 2003-08-03 03:00:00 TS 12.9566 139.722 main 1529 1501 PPP___________ WP112003 12.8000 139.477 TD 32 998 -1 12.9774 139.845 2 1002 0 0 13.0924 139.845 1 26 1002 9 326
2003212N09150 2003 52 WP MM ETAU 2003-08-03 06:00:00 TS 13.3462 139.423 35 1000 tokyo main 1501 1474 OOOO__________ jtwc_wp WP112003 13.2000 139.100 TS 35 997 0 13.4000 139.600 3 35 1000 0 5 150 100 0 13.4000 139.600 1 29 1000 13.5000 139.300 TD 30 996 9 318
2003212N09150 2003 52 WP MM ETAU 2003-08-03 09:00:00 TS 13.6525 139.076 main 1476 1438 PPPP__________ WP112003 13.5923 138.850 TS 40 994 0 13.6501 139.230 3 37 998 0 5 150 100 13.6351 139.187 1 31 997 13.8126 138.998 TD 32 994 9 311
2003212N09150 2003 52 WP MM ETAU 2003-08-03 12:00:00 TS 13.9667 138.700 40 996 tokyo main 1440 1414 OOOO__________ jtwc_wp WP112003 14.0000 138.600 TS 45 991 0 13.9000 138.800 3 40 996 0 5 150 100 0 13.9000 138.700 2 34 995 14.1000 138.700 TS 35 992 10 314
2003212N09150 2003 52 WP MM ETAU 2003-08-03 15:00:00 TS 14.3529 138.341 main 1407 1370 PPPP__________ WP112003 14.4499 138.252 TS 45 991 0 14.2996 138.445 3 42 993 0 5 165 110 14.2998 138.273 2 36 995 14.3623 138.394 TS 37 990 11 315
2003212N09150 2003 52 WP MM ETAU 2003-08-03 18:00:00 TS 14.7500 137.900 45 990 tokyo main 1372 1326 OOOO__________ jtwc_wp WP112003 14.9000 137.800 TS 45 991 0 70 70 70 70 1007 105 40 14.7000 138.000 3 45 990 0 5 180 120 0 14.7000 137.800 2 38 995 14.7000 138.000 TS 40 988 13 308
2003212N09150 2003 52 WP MM ETAU 2003-08-03 21:00:00 TS 15.1256 137.318 main 1316 1261 PPPP__________ WP112003 15.3150 137.237 TS 50 987 0 77 77 92 92 1005 117 40 14.9800 137.360 3 50 985 0 5 190 135 14.9724 137.230 2 43 992 15.2350 137.445 TS 42 986 14 301
2003212N09150 2003 52 WP MM ETAU 2003-08-04 00:00:00 TS 15.4750 136.650 55 980 tokyo main 1264 1199 OOOO__________ jtwc_wp WP112003 15.7000 136.600 TS 55 984 0 85 85 115 115 1004 130 40 15.2000 136.600 4 55 980 5 60 30 5 200 150 0 15.2000 136.600 3 48 990 15.8000 136.800 TS 45 984 15 296
2003212N09150 2003 52 WP MM ETAU 2003-08-04 03:00:00 TS 15.7770 135.945 main 1192 1139 PPPP__________ WP112003 16.0574 135.957 TS 55 984 0 85 85 115 115 1004 130 40 15.3705 135.740 4 55 980 5 60 30 5 200 150 15.4276 135.927 3 51 987 16.2524 136.157 TS 47 982 15 294
2003212N09150 2003 52 WP MM ETAU 2003-08-04 06:00:00 TS 16.0750 135.275 55 980 tokyo main 1143 1097 OOOO__________ jtwc_wp WP112003 16.4000 135.300 TS 55 984 0 85 85 115 115 1004 130 40 15.6000 135.000 4 55 980 5 60 30 5 200 150 0 15.7000 135.300 3 54 985 16.6000 135.500 STS 50 980 13 298
2003212N09150 2003 52 WP MM ETAU 2003-08-04 09:00:00 TS 16.4024 134.714 main 1097 1073 PPPP__________ WP112003 16.7576 134.613 TS 55 984 0 85 85 115 115 1004 130 40 15.9820 134.625 4 57 977 5 60 35 5 210 150 16.0548 134.805 3 56 982 16.8151 134.812 STS 52 977 12 305
2003212N09150 2003 52 WP MM ETAU 2003-08-04 12:00:00 TS 16.7750 134.250 60 975 tokyo main 1078 1060 OOOO__________ jtwc_wp WP112003 17.1000 134.000 TS 55 984 0 85 85 115 115 1004 130 40 16.5000 134.400 4 60 975 5 60 40 5 220 150 0 16.5000 134.400 3 58 980 17.0000 134.200 STS 55 975 12 316
2003212N09150 2003 52 WP MM ETAU 2003-08-04 15:00:00 TS 17.2322 133.882 main 1062 1056 PPPP__________ WP112003 17.4071 133.570 TS 60 980 0 87 92 115 107 1004 130 37 17.1798 134.130 4 65 970 5 70 50 5 235 165 17.0573 134.050 3 61 977 17.2846 133.777 STS 57 972 11 322
2003212N09150 2003 52 WP MM ETAU 2003-08-04 18:00:00 TS 17.6750 133.525 70 965 tokyo main 1057 1037 OOOO__________ jtwc_wp WP112003 17.7000 133.200 TY 65 976 1 90 100 115 100 1004 130 35 17.8000 133.800 5 70 965 5 80 60 5 250 180 0 17.6000 133.700 4 64 975 17.6000 133.400 STS 60 970 11 315
2003212N09150 2003 52 WP MM ETAU 2003-08-04 21:00:00 TS 18.0087 133.076 main 1037 999 PPPP__________ WP112003 18.0075 132.750 TY 72 969 1 90 100 115 100 1004 130 35 18.1249 133.352 5 72 962 5 80 60 5 250 190 17.9947 133.295 4 66 972 17.9075 132.908 STS 62 967 11 304
2003212N09150 2003 52 WP MM ETAU 2003-08-05 00:00:00 TS 18.2750 132.575 75 960 tokyo main 1004 961 OOOO__________ jtwc_wp WP112003 18.3000 132.300 TY 80 963 1 90 100 115 100 1004 130 35 18.3000 132.800 5 75 960 5 80 60 5 250 200 0 18.3000 132.800 4 68 970 18.2000 132.400 T 65 965 11 296
2003212N09150 2003 52 WP MM ETAU 2003-08-05 03:00:00 TS 18.4965 132.009 main 961 928 PPPP__________ WP112003 18.5424 131.885 TY 80 963 1 97 95 102 105 1004 130 35 18.4355 132.112 5 75 960 5 80 70 5 250 210 18.5655 132.120 4 72 967 18.4425 131.920 T 67 962 11 294
2003212N09150 2003 52 WP MM ETAU 2003-08-05 06:00:00 TS 18.7250 131.500 75 960 tokyo main 928 916 OOOO__________ jtwc_wp WP112003 18.8000 131.500 TY 80 963 1 105 90 90 110 1004 130 35 18.6000 131.500 5 75 960 9 80 80 5 250 220 0 18.8000 131.500 4 77 965 18.7000 131.500 T 70 960 9 303
2003212N09150 2003 52 WP MM ETAU 2003-08-05 09:00:00 TS 18.9990 131.188 main 922 910 PPPP__________ WP112003 19.1049 131.150 TY 82 960 1 105 90 90 110 1004 130 35 18.8820 131.205 5 75 960 9 80 80 5 250 220 18.9970 131.212 4 77 965 19.0123 131.185 T 72 957 9 320
2003212N09150 2003 52 WP MM ETAU 2003-08-05 12:00:00 TS 19.3750 130.925 75 960 tokyo main 911 885 OOOO__________ jtwc_wp WP112003 19.5000 130.800 TY 85 958 2 105 90 90 110 1004 130 35 19.3000 131.000 5 75 960 9 80 80 5 250 220 0 19.3000 131.000 4 77 965 19.4000 130.900 T 75 955 11 327
2003212N09150 2003 52 WP MM ETAU 2003-08-05 15:00:00 TS 19.9075 130.561 main 887 858 PPPP__________ WP112003 20.0200 130.400 TY 87 956 2 107 100 100 105 1003 130 35 19.8775 130.673 5 75 960 9 80 80 5 250 220 19.8626 130.615 4 77 965 19.8700 130.557 T 75 955 13 328
2003212N09150 2003 52 WP MM ETAU 2003-08-05 18:00:00 TS 20.5000 130.175 75 960 tokyo main 860 837 OOOO__________ jtwc_wp WP112003 20.6000 130.000 TY 90 954 2 110 110 110 100 1002 130 35 20.5000 130.300 5 75 960 9 80 80 5 250 220 0 20.5000 130.200 4 77 965 20.4000 130.200 T 75 955 13 327
2003212N09150 2003 52 WP MM ETAU 2003-08-05 21:00:00 TS 21.0156 129.797 main 837 823 PPPP__________ WP112003 21.1425 129.627 TY 92 951 2 115 115 115 105 1002 130 35 21.0001 129.885 5 75 957 9 85 85 5 260 220 20.9924 129.842 4 77 965 20.9275 129.835 T 75 955 13 327
2003212N09150 2003 52 WP MM ETAU 2003-08-06 00:00:00 TS 21.5500 129.450 75 955 tokyo main 832 782 OOOO__________ jtwc_wp WP112003 21.7000 129.300 TY 95 949 2 120 120 120 110 1002 130 35 21.5000 129.500 5 75 955 9 90 90 5 270 220 0 21.5000 129.500 4 77 965 21.5000 129.500 T 75 955 13 332
2003212N09150 2003 52 WP MM ETAU 2003-08-06 03:00:00 TS 22.1637 129.134 main 778 737 PPPP__________ WP112003 22.2925 129.012 TY 95 949 2 120 120 120 110 1002 130 35 22.0849 129.205 5 75 955 9 90 90 5 270 220 22.1351 129.098 4 77 962 22.1424 129.220 T 75 955 14 338
2003212N09150 2003 52 WP MM ETAU 2003-08-06 06:00:00 TS 22.8000 128.900 75 955 tokyo main 737 711 OOOO__________ jtwc_wp WP112003 22.9000 128.800 TY 95 949 2 120 120 120 110 1002 130 35 22.7000 129.000 5 75 955 9 90 90 5 270 220 0 22.8000 128.800 4 77 960 22.8000 129.000 T 75 955 13 346
2003212N09150 2003 52 WP MM ETAU 2003-08-06 09:00:00 TS 23.3915 128.797 main 711 686 PPPP__________ WP112003 23.4999 128.677 TY 95 949 2 120 120 120 110 1002 130 35 23.2590 128.899 5 75 955 9 100 100 5 270 220 23.3998 128.776 4 77 960 23.4074 128.835 T 75 955 12 352
2003212N09150 2003 52 WP MM ETAU 2003-08-06 12:00:00 TS 24.0000 128.725 75 955 tokyo main 686 667 OOOO__________ jtwc_wp WP112003 24.1000 128.600 TY 95 949 2 120 120 120 110 1002 130 35 23.9000 128.800 5 75 955 9 110 110 4 270 220 0 24.0000 128.800 4 77 960 24.0000 128.700 T 75 955 13 350
2003212N09150 2003 52 WP MM ETAU 2003-08-06 15:00:00 TS 24.6588 128.563 75 955 tokyo main 666 644 POPP__________ WP112003 24.7000 128.500 TY 97 946 3 120 120 120 110 1002 130 35 24.7000 128.600 5 75 955 3 120 100 3 300 200 0 24.6426 128.615 4 82 957 24.5925 128.535 T 77 952 13 347
2003212N09150 2003 52 WP MM ETAU 2003-08-06 18:00:00 TS 25.2750 128.400 80 950 tokyo main 644 615 OOOO__________ jtwc_wp WP112003 25.3000 128.400 TY 100 944 3 120 120 120 110 1002 130 35 25.3000 128.400 5 80 950 3 140 80 3 325 200 0 25.3000 128.400 5 87 955 25.2000 128.400 T 80 950 13 349
2003212N09150 2003 52 WP MM ETAU 2003-08-06 21:00:00 TS 25.9418 128.279 80 950 tokyo main 615 558 POPP__________ WP112003 25.9225 128.263 TY 105 938 3 165 195 155 155 999 175 35 26.0000 128.300 5 80 950 3 160 80 3 325 200 0 25.9799 128.248 5 87 955 25.8650 128.305 T 82 947 13 353
2003212N09150 2003 52 WP MM ETAU 2003-08-07 00:00:00 TS 26.5250 128.225 80 950 tokyo main 558 503 OOOO__________ jtwc_wp WP112003 26.5000 128.200 TY 110 933 3 210 270 190 200 997 220 35 26.5000 128.200 5 80 950 3 160 80 3 350 180 1 26.6000 128.200 5 87 955 26.5000 128.300 ST 85 945 11 1
2003212N09150 2003 52 WP MM ETAU 2003-08-07 03:00:00 TS 27.0223 128.280 80 950 tokyo main 503 444 POPP__________ WP112003 26.9722 128.260 TY 110 933 3 210 270 190 200 997 220 30 27.0000 128.200 5 80 950 3 160 80 3 350 180 0 27.0798 128.275 5 87 952 27.0373 128.383 ST 85 945 10 16
2003212N09150 2003 52 WP MM ETAU 2003-08-07 06:00:00 TS 27.4750 128.525 85 945 tokyo main 444 387 OOOO__________ jtwc_wp WP112003 27.4000 128.500 TY 110 933 3 210 270 190 200 997 220 25 40 27.5000 128.500 5 85 945 3 160 80 3 350 200 0 27.5000 128.500 5 87 950 27.5000 128.600 ST 85 945 11 32
2003212N09150 2003 52 WP MM ETAU 2003-08-07 09:00:00 TS 27.9211 128.915 85 945 tokyo main 387 358 POPP__________ WP112003 27.8425 128.925 TY 110 933 3 205 260 195 200 997 220 25 28.0000 129.000 5 85 945 4 160 80 3 350 220 0 27.9495 128.811 5 87 950 27.8922 128.926 ST 85 945 11 40
2003212N09150 2003 52 WP MM ETAU 2003-08-07 10:00:00 TS 28.0529 129.081 85 945 tokyo main 358 326 POPP__________ WP112003 27.9920 129.105 TY 110 933 3 203 256 196 200 997 220 25 28.1000 129.200 5 85 945 4 160 80 3 350 220 1 28.0995 128.951 5 87 950 28.0202 129.067 ST 85 945 12 46
2003212N09150 2003 52 WP MM ETAU 2003-08-07 12:00:00 TS 28.3500 129.425 80 950 tokyo main 316 254 OOOO__________ jtwc_wp WP112003 28.3000 129.500 TY 110 933 3 200 250 200 200 997 220 25 40 28.4000 129.500 5 80 950 4 160 80 3 325 250 0 28.4000 129.300 5 87 950 28.3000 129.400 ST 85 945 14 49
2003212N09150 2003 52 WP MM ETAU 2003-08-07 15:00:00 TS 28.7971 130.067 80 950 tokyo main 252 189 POPP__________ WP112003 28.7626 130.136 TY 107 935 3 200 250 200 200 997 220 25 28.8000 130.100 5 80 950 3 180 100 3 325 250 0 28.8132 130.020 5 87 950 28.8127 130.013 ST 85 945 16 50
2003212N09150 2003 52 WP MM ETAU 2003-08-07 18:00:00 TS 29.3500 130.775 80 950 tokyo main 178 130 OOOO__________ jtwc_wp WP112003 29.3000 130.800 TY 105 938 3 200 250 200 200 997 220 25 40 29.4000 130.800 5 80 950 3 180 120 3 325 250 0 29.3000 130.800 5 87 950 29.4000 130.700 ST 85 945 17 45
2003212N09150 2003 52 WP MM ETAU 2003-08-07 21:00:00 TS 29.9936 131.430 80 950 tokyo main 130 96 POPP__________ WP112003 29.9773 131.422 TY 102 941 3 190 240 205 190 997 220 25 30.0000 131.500 5 80 950 3 200 100 3 325 250 0 29.9620 131.430 5 82 955 30.0349 131.365 ST 85 945 17 38
2003212N09150 2003 52 WP MM ETAU 2003-08-08 00:00:00 TS 30.7000 132.000 75 950 tokyo main 96 86 OOOO__________ jtwc_wp WP112003 30.7000 132.000 TY 100 944 3 180 230 210 180 997 220 25 40 30.7000 132.000 5 75 950 3 210 80 3 325 250 0 30.7000 132.000 4 77 960 30.7000 132.000 ST 85 945 17 35
2003212N09150 2003 52 WP MM ETAU 2003-08-08 03:00:00 TS 31.4092 132.592 75 950 tokyo main 113 78 POPP__________ WP112003 31.3646 132.516 TY 95 949 2 180 230 210 180 997 220 22 31.5000 132.700 5 75 950 3 210 80 3 325 250 0 31.4223 132.573 4 77 960 31.3497 132.581 ST 85 945 16 34
2003212N09150 2003 52 WP MM ETAU 2003-08-08 06:00:00 TS 32.0500 133.075 75 950 tokyo main 67 43 OOOO__________ jtwc_wp WP112003 32.0000 133.000 TY 90 954 2 180 230 210 180 997 220 20 30 32.1000 133.100 5 75 950 3 200 60 3 325 230 0 32.1000 133.100 4 77 960 32.0000 133.100 ST 85 945 15 33
2003212N09150 2003 52 WP MM ETAU 2003-08-08 09:00:00 TS 32.6667 133.564 75 950 tokyo main 56 14 POPP__________ WP112003 32.6074 133.508 TY 90 954 2 180 230 195 180 997 220 20 32.7000 133.600 5 75 950 3 180 40 3 325 230 0 32.6797 133.573 4 77 960 32.6797 133.573 ST 85 945 14 34
2003212N09150 2003 52 WP MM ETAU 2003-08-08 12:00:00 TS 33.2250 134.000 75 950 tokyo main 14 0 OOOO__________ jtwc_wp WP112003 33.2000 134.000 TY 90 954 2 180 230 180 180 997 220 20 30 33.2000 134.000 5 75 950 3 160 20 3 325 200 1 33.2000 134.000 4 77 960 33.3000 134.000 ST 85 945 13 33
2003212N09150 2003 52 WP MM ETAU 2003-08-08 15:00:00 TS 33.7313 134.388 60 955 tokyo main 0 0 POPP__________ WP112003 33.8069 134.429 TY 85 958 2 170 215 165 155 997 210 20 33.7000 134.400 4 60 955 3 100 20 3 325 200 0 33.6844 134.372 4 67 962 33.7340 134.351 ST 80 950 12 34
2003212N09150 2003 52 WP MM ETAU 2003-08-08 18:00:00 TS 34.2500 134.825 50 965 tokyo main 27 0 OOOO__________ jtwc_wp WP112003 34.4000 134.900 TY 80 963 1 160 200 150 130 997 200 20 30 34.2000 134.800 4 50 965 0 3 300 200 1 34.2000 134.800 3 58 965 34.2000 134.800 T 75 955 14 38
2003212N09150 2003 52 WP MM ETAU 2003-08-08 21:00:00 TS 34.8239 135.409 50 970 tokyo main 0 0 POPP__________ WP112003 34.9414 135.462 TY 72 969 1 34.7000 135.400 4 50 970 0 3 300 180 1 34.7805 135.312 3 51 970 34.8735 135.460 T 67 957 17 41
2003212N09150 2003 52 WP MM ETAU 2003-08-09 00:00:00 TS 35.5500 136.200 45 975 tokyo main 0 0 OOOO__________ jtwc_wp WP112003 35.5000 136.200 TY 65 976 1 35.5000 136.100 3 45 975 0 3 300 180 0 35.5000 136.100 2 44 975 35.7000 136.400 STS 60 960 23 46
2003212N09150 2003 52 WP MM ETAU 2003-08-09 03:00:00 TS 36.3898 137.408 45 980 tokyo main 0 0 POPP__________ WP112003 36.0750 137.171 TY 55 983 0 36.5000 137.400 3 45 980 0 3 300 120 0 36.3549 137.368 2 41 980 36.6294 137.695 STS 55 968 27 50
2003212N09150 2003 52 WP MM ETAU 2003-08-09 06:00:00 TS 37.3000 138.750 40 985 tokyo main 0 0 OOOO__________ jtwc_wp WP112003 36.8000 138.300 TS 45 991 0 37.4000 138.800 3 40 985 0 3 300 100 0 37.4000 138.800 2 38 985 37.6000 139.100 STS 50 976 28 47
2003212N09150 2003 52 WP MM ETAU 2003-08-09 09:00:00 TS 38.2976 139.945 40 985 tokyo main 0 0 POPP__________ WP112003 37.7742 139.464 TS 45 991 0 38.4000 140.000 3 40 985 0 3 300 100 0 38.6305 140.019 2 38 985 38.3859 140.297 STS 45 980 29 39
2003212N09150 2003 52 WP MM ETAU 2003-08-09 12:00:00 TS 39.5750 141.125 40 985 tokyo main 0 0 OOOO__________ jtwc_wp WP112003 38.9000 140.700 TS 45 991 0 40.0000 141.200 3 40 985 0 3 300 100 0 40.0000 141.200 2 38 985 39.4000 141.400 TS 40 985 32 34
2003212N09150 2003 52 WP MM ETAU 2003-08-09 15:00:00 TS 40.9541 142.282 40 985 tokyo main 75 69 POPP__________ WP112003 40.0233 141.904 TS 37 995 0 41.4000 142.400 3 40 985 0 3 325 50 0 41.4495 142.393 2 38 985 40.9399 142.483 TS 40 985 33 32
2003212N09150 2003 52 WP MM ETAU 2003-08-09 16:00:00 TS 41.4300 142.677 40 985 tokyo main 69 0 POPP__________ WP112003 40.4106 142.336 TS 34 997 0 41.9000 142.800 3 40 985 0 3 325 50 1 41.9242 142.808 2 38 985 41.5408 142.849 TS 40 985 35 34
2003212N09150 2003 52 WP MM ETAU 2003-08-09 18:00:00 MX 42.4000 143.592 984 tokyo main 19 0 OOOO__________ jtwc_wp WP112003 41.2000 143.300 TD 30 1000 -1 42.8000 143.700 6 984 0 0 0 42.8000 143.700 2 38 985 42.8000 143.600 TS 40 985 33 42
2003212N09150 2003 52 WP MM ETAU 2003-08-09 21:00:00 MX 43.4423 145.172 main 0 0 PPP___________ WP112003 42.4043 145.066 TD 27 1001 -1 43.7242 145.199 6 984 0 0 43.6795 145.198 2 33 985 TS 32 48
2003212N09150 2003 52 WP MM ETAU 2003-08-10 00:00:00 MX 44.5625 146.925 984 tokyo main 7 0 OOO___________ jtwc_wp WP112003 43.6000 147.100 TD 25 1002 -1 44.7000 146.900 6 984 0 0 0 44.7000 146.900 1 29 985 41 42
2003212N09150 2003 52 WP MM ETAU 2003-08-10 03:00:00 MX 46.4714 149.018 main 90 90 _PP___________ WP112003 TD -1 46.5285 149.093 6 984 0 0 46.3572 148.868 1 29 985 48 37
2003212N09150 2003 52 WP MM ETAU 2003-08-10 06:00:00 MX 48.4000 151.100 984 tokyo main 260 221 _OO___________ 48.4000 151.100 6 984 0 0 0 48.4000 151.100 1 29 985 39 33
2003212N09150 2003 52 WP MM ETAU 2003-08-10 09:00:00 ET 49.7006 152.191 main 218 184 _P____________ 49.7006 152.191 6 984 0 0 1 25 23
2003212N09150 2003 52 WP MM ETAU 2003-08-10 12:00:00 ET 50.7000 152.600 984 tokyo main 188 187 _O____________ 50.7000 152.600 6 984 0 0 0 20 10
2003212N09150 2003 52 WP MM ETAU 2003-08-10 15:00:00 ET 51.6339 152.715 main 226 226 _P____________ 51.6339 152.715 6 984 0 0 16 358
2003212N09150 2003 52 WP MM ETAU 2003-08-10 18:00:00 ET 52.3000 152.500 984 tokyo main 254 252 _O____________ 52.3000 152.500 6 984 0 0 0 11 341
2003212N09150 2003 52 WP MM ETAU 2003-08-10 21:00:00 ET 52.6403 152.148 main 274 272 _P____________ 52.6403 152.148 6 984 0 0 6 324
2003212N09150 2003 52 WP MM ETAU 2003-08-11 00:00:00 ET 52.8000 151.900 984 tokyo main 283 266 _O____________ 52.8000 151.900 6 984 0 0 0 4 353
2003212N09150 2003 52 WP MM ETAU 2003-08-11 03:00:00 ET 53.0526 152.100 main 263 234 _P____________ 53.0526 152.100 6 986 0 0 5 42
2003212N09150 2003 52 WP MM ETAU 2003-08-11 06:00:00 ET 53.2000 152.500 988 tokyo main 234 215 _O____________ 53.2000 152.500 6 988 0 0 0 5 73
2003212N09150 2003 52 WP MM ETAU 2003-08-11 09:00:00 ET 53.1899 152.835 main 215 193 _P____________ 53.1899 152.835 6 989 0 0 5 115
2003212N09150 2003 52 WP MM ETAU 2003-08-11 12:00:00 ET 53.0000 153.200 990 tokyo main 193 174 _O____________ 53.0000 153.200 6 990 0 0 0 7 140
2003212N09150 2003 52 WP MM ETAU 2003-08-11 15:00:00 ET 52.6453 153.595 main 175 156 _P____________ 52.6453 153.595 6 990 0 0 9 149
2003212N09150 2003 52 WP MM ETAU 2003-08-11 18:00:00 ET 52.2000 154.000 990 tokyo main 158 _O____________ 52.2000 154.000 6 990 0 0 0 10 151

デジタル台風データ・検索

IBTrACS Databaseについて

本データベースは、米国NOAAが公開する1842年以降の世界の熱帯低気圧のベストトラックデータアーカイブInternational Best Track Archive for Climate Stewardship (IBTrACS)を、ウェブで閲覧しやすい形式に変換したものです。

最終更新日:2021-12-03